sensor_id;sensor_type;location;lat;lon;timestamp;pressure;altitude;pressure_sealevel;temperature;humidity
32298;BME280;18782;48.984;8.548;2023-07-24T00:00:39;99198.88;;;18.39;95.56
32298;BME280;18782;48.984;8.548;2023-07-24T00:03:07;99195.38;;;18.40;95.70
32298;BME280;18782;48.984;8.548;2023-07-24T00:05:35;99188.44;;;18.39;96.34
32298;BME280;18782;48.984;8.548;2023-07-24T00:08:03;99168.41;;;18.43;96.61
32298;BME280;18782;48.984;8.548;2023-07-24T00:10:31;99171.88;;;18.43;96.42
32298;BME280;18782;48.984;8.548;2023-07-24T00:12:58;99163.16;;;18.44;96.26
32298;BME280;18782;48.984;8.548;2023-07-24T00:15:28;99162.44;;;18.38;95.85
32298;BME280;18782;48.984;8.548;2023-07-24T00:17:56;99167.66;;;18.36;96.03
32298;BME280;18782;48.984;8.548;2023-07-24T00:20:24;99160.69;;;18.38;96.88
32298;BME280;18782;48.984;8.548;2023-07-24T00:22:52;99163.31;;;18.35;96.84
32298;BME280;18782;48.984;8.548;2023-07-24T00:25:20;99153.81;;;18.34;97.08
32298;BME280;18782;48.984;8.548;2023-07-24T00:27:48;99162.44;;;18.36;97.33
32298;BME280;18782;48.984;8.548;2023-07-24T00:30:15;99158.84;;;18.43;96.40
32298;BME280;18782;48.984;8.548;2023-07-24T00:32:44;99163.97;;;18.46;96.61
32298;BME280;18782;48.984;8.548;2023-07-24T00:35:12;99154.41;;;18.48;96.07
32298;BME280;18782;48.984;8.548;2023-07-24T00:37:40;99152.59;;;18.50;95.96
32298;BME280;18782;48.984;8.548;2023-07-24T00:40:08;99153.38;;;18.56;95.77
32298;BME280;18782;48.984;8.548;2023-07-24T00:42:36;99145.53;;;18.56;95.56
32298;BME280;18782;48.984;8.548;2023-07-24T00:45:04;99142.09;;;18.55;95.39
32298;BME280;18782;48.984;8.548;2023-07-24T00:47:33;99147.44;;;18.47;96.18
32298;BME280;18782;48.984;8.548;2023-07-24T00:50:02;99136.16;;;18.47;96.07
32298;BME280;18782;48.984;8.548;2023-07-24T00:52:30;99139.66;;;18.46;96.38
32298;BME280;18782;48.984;8.548;2023-07-24T00:54:58;99134.50;;;18.44;96.71
32298;BME280;18782;48.984;8.548;2023-07-24T00:57:26;99130.16;;;18.43;96.70
32298;BME280;18782;48.984;8.548;2023-07-24T00:59:54;99131.84;;;18.46;96.53
32298;BME280;18782;48.984;8.548;2023-07-24T01:02:22;99117.91;;;18.48;96.33
32298;BME280;18782;48.984;8.548;2023-07-24T01:04:50;99120.44;;;18.51;96.24
32298;BME280;18782;48.984;8.548;2023-07-24T01:07:20;99112.63;;;18.51;96.04
32298;BME280;18782;48.984;8.548;2023-07-24T01:09:48;99111.06;;;18.43;96.49
32298;BME280;18782;48.984;8.548;2023-07-24T01:12:22;99108.34;;;18.47;96.32
32298;BME280;18782;48.984;8.548;2023-07-24T01:15:03;99101.44;;;18.46;96.05
32298;BME280;18782;48.984;8.548;2023-07-24T01:17:35;99098.78;;;18.49;95.99
32298;BME280;18782;48.984;8.548;2023-07-24T01:20:08;99103.13;;;18.47;96.56
32298;BME280;18782;48.984;8.548;2023-07-24T01:22:48;99099.63;;;18.50;96.05
32298;BME280;18782;48.984;8.548;2023-07-24T01:25:27;99107.41;;;18.51;95.98
32298;BME280;18782;48.984;8.548;2023-07-24T01:27:59;99099.00;;;18.39;96.61
32298;BME280;18782;48.984;8.548;2023-07-24T01:30:26;99105.19;;;18.33;97.09
32298;BME280;18782;48.984;8.548;2023-07-24T01:32:54;99096.66;;;18.25;98.17
32298;BME280;18782;48.984;8.548;2023-07-24T01:35:22;99098.38;;;18.26;98.08
32298;BME280;18782;48.984;8.548;2023-07-24T01:37:50;99100.97;;;18.26;98.24
32298;BME280;18782;48.984;8.548;2023-07-24T01:40:19;99099.31;;;18.23;98.30
32298;BME280;18782;48.984;8.548;2023-07-24T01:42:48;99100.34;;;18.15;98.90
32298;BME280;18782;48.984;8.548;2023-07-24T01:45:18;99098.75;;;18.08;99.46
32298;BME280;18782;48.984;8.548;2023-07-24T01:47:46;99095.31;;;18.06;99.75
32298;BME280;18782;48.984;8.548;2023-07-24T01:50:13;99101.53;;;17.98;100.00
32298;BME280;18782;48.984;8.548;2023-07-24T01:52:41;99097.22;;;17.97;100.00
32298;BME280;18782;48.984;8.548;2023-07-24T01:55:11;99098.13;;;17.95;100.00
32298;BME280;18782;48.984;8.548;2023-07-24T01:57:38;99102.47;;;17.94;100.00
32298;BME280;18782;48.984;8.548;2023-07-24T02:00:07;99092.00;;;17.97;100.00
32298;BME280;18782;48.984;8.548;2023-07-24T02:06:42;99081.63;;;17.94;100.00
32298;BME280;18782;48.984;8.548;2023-07-24T02:09:10;99092.06;;;17.94;100.00
32298;BME280;18782;48.984;8.548;2023-07-24T02:11:38;99085.19;;;17.90;100.00
32298;BME280;18782;48.984;8.548;2023-07-24T02:14:05;99076.50;;;17.91;100.00
32298;BME280;18782;48.984;8.548;2023-07-24T02:16:33;99066.25;;;17.82;100.00
32298;BME280;18782;48.984;8.548;2023-07-24T02:19:01;99070.53;;;17.85;100.00
32298;BME280;18782;48.984;8.548;2023-07-24T02:21:30;99063.63;;;17.84;100.00
32298;BME280;18782;48.984;8.548;2023-07-24T02:23:59;99060.06;;;17.88;100.00
32298;BME280;18782;48.984;8.548;2023-07-24T02:26:26;99068.69;;;17.90;100.00
32298;BME280;18782;48.984;8.548;2023-07-24T02:28:55;99062.63;;;17.89;100.00
32298;BME280;18782;48.984;8.548;2023-07-24T02:31:22;99062.59;;;17.92;99.97
32298;BME280;18782;48.984;8.548;2023-07-24T02:33:50;99052.13;;;17.94;99.69
32298;BME280;18782;48.984;8.548;2023-07-24T02:36:17;99055.56;;;17.97;99.88
32298;BME280;18782;48.984;8.548;2023-07-24T02:38:45;99064.25;;;17.96;99.93
32298;BME280;18782;48.984;8.548;2023-07-24T02:41:14;99067.63;;;18.02;100.00
32298;BME280;18782;48.984;8.548;2023-07-24T02:43:42;99056.31;;;18.03;100.00
32298;BME280;18782;48.984;8.548;2023-07-24T02:46:09;99052.81;;;18.04;99.76
32298;BME280;18782;48.984;8.548;2023-07-24T02:48:37;99044.97;;;18.05;99.86
32298;BME280;18782;48.984;8.548;2023-07-24T02:51:05;99049.28;;;18.06;99.82
32298;BME280;18782;48.984;8.548;2023-07-24T02:53:32;99050.16;;;18.07;99.96
32298;BME280;18782;48.984;8.548;2023-07-24T02:56:01;99051.88;;;18.08;99.28
32298;BME280;18782;48.984;8.548;2023-07-24T02:58:30;99025.88;;;18.05;99.51
32298;BME280;18782;48.984;8.548;2023-07-24T03:01:02;99031.09;;;18.05;99.62
32298;BME280;18782;48.984;8.548;2023-07-24T03:03:30;99032.88;;;18.03;99.96
32298;BME280;18782;48.984;8.548;2023-07-24T03:05:58;99027.81;;;17.95;100.00
32298;BME280;18782;48.984;8.548;2023-07-24T03:08:26;99024.31;;;17.97;100.00
32298;BME280;18782;48.984;8.548;2023-07-24T03:10:53;99020.84;;;17.95;100.00
32298;BME280;18782;48.984;8.548;2023-07-24T03:13:21;99009.53;;;17.98;100.00
32298;BME280;18782;48.984;8.548;2023-07-24T03:15:53;99021.66;;;17.99;100.00
32298;BME280;18782;48.984;8.548;2023-07-24T03:18:21;99021.63;;;18.00;100.00
32298;BME280;18782;48.984;8.548;2023-07-24T03:20:49;99015.47;;;18.05;100.00
32298;BME280;18782;48.984;8.548;2023-07-24T03:23:17;99006.75;;;18.06;100.00
32298;BME280;18782;48.984;8.548;2023-07-24T03:25:45;99013.63;;;18.10;100.00
32298;BME280;18782;48.984;8.548;2023-07-24T03:28:13;99011.78;;;18.15;99.79
32298;BME280;18782;48.984;8.548;2023-07-24T03:30:40;99010.88;;;18.16;99.36
32298;BME280;18782;48.984;8.548;2023-07-24T03:33:09;99020.34;;;18.20;99.57
32298;BME280;18782;48.984;8.548;2023-07-24T03:35:38;99016.84;;;18.21;99.25
32298;BME280;18782;48.984;8.548;2023-07-24T03:38:07;99017.75;;;18.20;99.75
32298;BME280;18782;48.984;8.548;2023-07-24T03:40:35;99013.44;;;18.19;99.89
32298;BME280;18782;48.984;8.548;2023-07-24T03:43:03;99016.13;;;18.14;100.00
32298;BME280;18782;48.984;8.548;2023-07-24T03:45:31;99017.00;;;18.15;100.00
32298;BME280;18782;48.984;8.548;2023-07-24T03:47:58;99018.69;;;18.16;100.00
32298;BME280;18782;48.984;8.548;2023-07-24T03:50:28;99016.09;;;18.17;100.00
32298;BME280;18782;48.984;8.548;2023-07-24T03:52:56;99011.78;;;18.15;100.00
32298;BME280;18782;48.984;8.548;2023-07-24T03:55:24;99012.72;;;18.12;100.00
32298;BME280;18782;48.984;8.548;2023-07-24T03:57:51;99019.72;;;18.09;100.00
32298;BME280;18782;48.984;8.548;2023-07-24T04:00:19;99017.94;;;18.12;100.00
32298;BME280;18782;48.984;8.548;2023-07-24T04:02:47;99011.72;;;18.18;100.00
32298;BME280;18782;48.984;8.548;2023-07-24T04:05:15;99013.50;;;18.16;100.00
32298;BME280;18782;48.984;8.548;2023-07-24T04:07:44;99012.50;;;18.21;100.00
32298;BME280;18782;48.984;8.548;2023-07-24T04:10:12;99006.34;;;18.27;100.00
32298;BME280;18782;48.984;8.548;2023-07-24T04:12:39;99005.34;;;18.31;100.00
32298;BME280;18782;48.984;8.548;2023-07-24T04:15:07;99007.91;;;18.34;99.93
32298;BME280;18782;48.984;8.548;2023-07-24T04:17:35;99006.22;;;18.32;100.00
32298;BME280;18782;48.984;8.548;2023-07-24T04:20:06;99008.69;;;18.38;100.00
32298;BME280;18782;48.984;8.548;2023-07-24T04:22:34;98990.41;;;18.39;99.76
32298;BME280;18782;48.984;8.548;2023-07-24T04:25:03;98990.28;;;18.45;99.10
32298;BME280;18782;48.984;8.548;2023-07-24T04:27:31;98994.56;;;18.48;99.35
32298;BME280;18782;48.984;8.548;2023-07-24T04:29:59;98991.84;;;18.52;98.68
32298;BME280;18782;48.984;8.548;2023-07-24T04:32:26;98982.25;;;18.55;98.50
32298;BME280;18782;48.984;8.548;2023-07-24T04:34:54;98986.41;;;18.62;98.52
32298;BME280;18782;48.984;8.548;2023-07-24T04:37:22;98995.03;;;18.65;98.14
32298;BME280;18782;48.984;8.548;2023-07-24T04:39:49;98988.06;;;18.66;98.15
32298;BME280;18782;48.984;8.548;2023-07-24T04:42:18;98981.84;;;18.73;98.73
32298;BME280;18782;48.984;8.548;2023-07-24T04:44:46;98977.34;;;18.80;98.28
32298;BME280;18782;48.984;8.548;2023-07-24T04:47:14;98984.22;;;18.82;97.76
32298;BME280;18782;48.984;8.548;2023-07-24T04:49:41;98975.59;;;18.80;97.77
32298;BME280;18782;48.984;8.548;2023-07-24T04:52:09;98975.50;;;18.83;97.87
32298;BME280;18782;48.984;8.548;2023-07-24T04:54:37;98972.88;;;18.85;98.15
32298;BME280;18782;48.984;8.548;2023-07-24T04:57:05;98959.88;;;18.83;98.00
32298;BME280;18782;48.984;8.548;2023-07-24T04:59:34;98958.00;;;18.88;98.34
32298;BME280;18782;48.984;8.548;2023-07-24T05:02:01;98957.25;;;18.85;98.04
32298;BME280;18782;48.984;8.548;2023-07-24T05:04:29;98961.50;;;18.87;98.09
32298;BME280;18782;48.984;8.548;2023-07-24T05:06:57;98961.56;;;18.84;98.21
32298;BME280;18782;48.984;8.548;2023-07-24T05:09:24;98977.22;;;18.84;98.46
32298;BME280;18782;48.984;8.548;2023-07-24T05:11:52;98978.94;;;18.85;97.77
32298;BME280;18782;48.984;8.548;2023-07-24T05:14:20;98975.34;;;18.89;97.60
32298;BME280;18782;48.984;8.548;2023-07-24T05:16:49;98985.59;;;18.97;98.04
32298;BME280;18782;48.984;8.548;2023-07-24T05:19:17;98980.34;;;18.98;98.37
32298;BME280;18782;48.984;8.548;2023-07-24T05:21:44;98987.25;;;18.99;98.07
32298;BME280;18782;48.984;8.548;2023-07-24T05:24:12;98986.41;;;19.00;97.73
32298;BME280;18782;48.984;8.548;2023-07-24T05:26:40;98992.47;;;18.99;98.01
32298;BME280;18782;48.984;8.548;2023-07-24T05:29:07;99002.78;;;19.06;98.36
32298;BME280;18782;48.984;8.548;2023-07-24T05:31:35;98997.56;;;19.06;97.90
32298;BME280;18782;48.984;8.548;2023-07-24T05:34:04;98989.69;;;19.07;98.32
32298;BME280;18782;48.984;8.548;2023-07-24T05:36:32;98988.75;;;19.10;98.25
32298;BME280;18782;48.984;8.548;2023-07-24T05:38:59;99001.69;;;19.14;98.39
32298;BME280;18782;48.984;8.548;2023-07-24T05:41:27;99011.34;;;19.11;98.52
32298;BME280;18782;48.984;8.548;2023-07-24T05:43:55;99012.22;;;19.11;98.19
32298;BME280;18782;48.984;8.548;2023-07-24T05:46:23;99029.28;;;19.23;98.65
32298;BME280;18782;48.984;8.548;2023-07-24T05:48:50;99024.81;;;19.28;98.86
32298;BME280;18782;48.984;8.548;2023-07-24T05:51:20;99029.13;;;19.29;98.52
32298;BME280;18782;48.984;8.548;2023-07-24T05:53:47;99036.91;;;19.30;98.62
32298;BME280;18782;48.984;8.548;2023-07-24T05:56:15;99039.78;;;19.20;99.00
32298;BME280;18782;48.984;8.548;2023-07-24T05:58:43;99029.34;;;19.21;98.96
32298;BME280;18782;48.984;8.548;2023-07-24T06:01:10;99026.56;;;19.27;98.35
32298;BME280;18782;48.984;8.548;2023-07-24T06:03:38;99032.53;;;19.33;97.25
32298;BME280;18782;48.984;8.548;2023-07-24T06:06:06;99027.06;;;19.42;97.01
32298;BME280;18782;48.984;8.548;2023-07-24T06:08:35;99027.94;;;19.42;97.15
32298;BME280;18782;48.984;8.548;2023-07-24T06:11:02;99026.19;;;19.41;97.41
32298;BME280;18782;48.984;8.548;2023-07-24T06:13:30;99029.66;;;19.43;97.87
32298;BME280;18782;48.984;8.548;2023-07-24T06:15:58;99019.03;;;19.49;98.14
32298;BME280;18782;48.984;8.548;2023-07-24T06:18:25;99027.53;;;19.58;97.59
32298;BME280;18782;48.984;8.548;2023-07-24T06:20:53;99021.31;;;19.63;97.26
32298;BME280;18782;48.984;8.548;2023-07-24T06:23:21;99024.31;;;19.80;96.85
32298;BME280;18782;48.984;8.548;2023-07-24T06:25:50;99021.41;;;19.91;96.34
32298;BME280;18782;48.984;8.548;2023-07-24T06:28:19;99026.44;;;19.97;96.00
32298;BME280;18782;48.984;8.548;2023-07-24T06:30:47;99016.00;;;19.97;96.01
32298;BME280;18782;48.984;8.548;2023-07-24T06:33:14;99018.34;;;20.06;95.76
32298;BME280;18782;48.984;8.548;2023-07-24T06:35:42;99022.59;;;20.11;95.49
32298;BME280;18782;48.984;8.548;2023-07-24T06:38:10;99025.94;;;20.16;95.47
32298;BME280;18782;48.984;8.548;2023-07-24T06:40:37;99025.81;;;20.19;95.11
32298;BME280;18782;48.984;8.548;2023-07-24T06:43:06;99030.88;;;20.25;94.52
32298;BME280;18782;48.984;8.548;2023-07-24T06:45:34;99034.38;;;20.24;94.79
32298;BME280;18782;48.984;8.548;2023-07-24T06:48:02;99020.06;;;20.37;94.14
32298;BME280;18782;48.984;8.548;2023-07-24T06:50:30;99008.47;;;20.47;93.43
32298;BME280;18782;48.984;8.548;2023-07-24T06:52:57;98994.44;;;20.50;94.79
32298;BME280;18782;48.984;8.548;2023-07-24T06:55:25;98995.19;;;20.53;94.16
32298;BME280;18782;48.984;8.548;2023-07-24T06:57:53;98993.38;;;20.55;93.71
32298;BME280;18782;48.984;8.548;2023-07-24T07:00:22;98995.00;;;20.59;93.13
32298;BME280;18782;48.984;8.548;2023-07-24T07:02:49;98986.03;;;20.67;93.03
32298;BME280;18782;48.984;8.548;2023-07-24T07:05:17;98983.00;;;20.80;92.66
32298;BME280;18782;48.984;8.548;2023-07-24T07:07:45;98988.66;;;20.93;91.96
32298;BME280;18782;48.984;8.548;2023-07-24T07:10:12;98996.94;;;21.07;90.66
32298;BME280;18782;48.984;8.548;2023-07-24T07:12:40;98997.69;;;21.11;91.43
32298;BME280;18782;48.984;8.548;2023-07-24T07:15:08;99017.56;;;21.17;91.49
32298;BME280;18782;48.984;8.548;2023-07-24T07:17:37;99037.94;;;21.07;91.29
32298;BME280;18782;48.984;8.548;2023-07-24T07:20:06;99063.38;;;20.75;93.33
32298;BME280;18782;48.984;8.548;2023-07-24T07:22:34;99040.09;;;20.66;95.75
32298;BME280;18782;48.984;8.548;2023-07-24T07:25:02;99057.66;;;20.63;97.00
32298;BME280;18782;48.984;8.548;2023-07-24T07:27:29;99068.03;;;20.66;97.00
32298;BME280;18782;48.984;8.548;2023-07-24T07:29:57;99049.25;;;20.81;97.27
32298;BME280;18782;48.984;8.548;2023-07-24T07:32:24;99040.31;;;20.88;97.71
32298;BME280;18782;48.984;8.548;2023-07-24T07:34:54;99037.44;;;20.96;95.18
32298;BME280;18782;48.984;8.548;2023-07-24T07:37:22;99021.88;;;20.91;95.26
32298;BME280;18782;48.984;8.548;2023-07-24T07:39:50;99024.06;;;21.05;95.07
32298;BME280;18782;48.984;8.548;2023-07-24T07:42:17;99029.03;;;21.13;96.19
32298;BME280;18782;48.984;8.548;2023-07-24T07:44:45;99038.59;;;21.14;95.17
32298;BME280;18782;48.984;8.548;2023-07-24T07:47:13;99060.50;;;21.11;96.11
32298;BME280;18782;48.984;8.548;2023-07-24T07:49:41;99076.19;;;21.11;96.93
32298;BME280;18782;48.984;8.548;2023-07-24T07:52:10;99076.13;;;21.13;97.41
32298;BME280;18782;48.984;8.548;2023-07-24T07:54:39;99086.88;;;21.05;96.84
32298;BME280;18782;48.984;8.548;2023-07-24T07:57:06;99090.91;;;21.15;96.78
32298;BME280;18782;48.984;8.548;2023-07-24T07:59:34;99087.94;;;21.26;95.88
32298;BME280;18782;48.984;8.548;2023-07-24T08:02:02;99073.03;;;21.28;93.83
32298;BME280;18782;48.984;8.548;2023-07-24T08:04:30;99065.00;;;21.34;90.98
32298;BME280;18782;48.984;8.548;2023-07-24T08:06:58;99059.53;;;21.40;91.81
32298;BME280;18782;48.984;8.548;2023-07-24T08:09:27;99055.00;;;21.45;91.11
32298;BME280;18782;48.984;8.548;2023-07-24T08:11:55;99059.38;;;21.45;90.84
32298;BME280;18782;48.984;8.548;2023-07-24T08:14:23;99053.28;;;21.46;89.70
32298;BME280;18782;48.984;8.548;2023-07-24T08:16:50;99052.38;;;21.45;90.14
32298;BME280;18782;48.984;8.548;2023-07-24T08:19:19;99045.06;;;21.55;91.25
32298;BME280;18782;48.984;8.548;2023-07-24T08:21:47;99026.38;;;21.66;91.14
32298;BME280;18782;48.984;8.548;2023-07-24T08:24:15;99027.53;;;21.82;91.50
32298;BME280;18782;48.984;8.548;2023-07-24T08:26:44;99016.94;;;21.85;90.37
32298;BME280;18782;48.984;8.548;2023-07-24T08:29:12;99011.56;;;21.89;90.67
32298;BME280;18782;48.984;8.548;2023-07-24T08:31:39;98997.97;;;22.02;90.26
32298;BME280;18782;48.984;8.548;2023-07-24T08:34:07;99000.44;;;22.06;90.75
32298;BME280;18782;48.984;8.548;2023-07-24T08:36:35;98994.78;;;22.19;89.92
32298;BME280;18782;48.984;8.548;2023-07-24T08:39:03;98984.66;;;22.31;88.31
32298;BME280;18782;48.984;8.548;2023-07-24T08:41:31;98990.78;;;22.32;88.45
32298;BME280;18782;48.984;8.548;2023-07-24T08:44:03;98996.38;;;22.45;88.29
32298;BME280;18782;48.984;8.548;2023-07-24T08:46:31;99011.16;;;22.47;86.41
32298;BME280;18782;48.984;8.548;2023-07-24T08:49:03;99002.50;;;22.45;85.53
32298;BME280;18782;48.984;8.548;2023-07-24T08:51:31;98992.13;;;22.42;85.83
32298;BME280;18782;48.984;8.548;2023-07-24T08:54:00;99000.84;;;22.43;85.58
32298;BME280;18782;48.984;8.548;2023-07-24T08:56:28;99011.16;;;22.47;85.64
32298;BME280;18782;48.984;8.548;2023-07-24T08:58:56;99005.81;;;22.50;86.89
32298;BME280;18782;48.984;8.548;2023-07-24T09:01:25;99007.84;;;22.64;86.03
32298;BME280;18782;48.984;8.548;2023-07-24T09:03:53;99013.19;;;22.62;84.98
32298;BME280;18782;48.984;8.548;2023-07-24T09:06:21;99004.03;;;22.73;85.12
32298;BME280;18782;48.984;8.548;2023-07-24T09:08:49;99001.03;;;22.82;84.96
32298;BME280;18782;48.984;8.548;2023-07-24T09:11:20;99009.88;;;23.01;85.30
32298;BME280;18782;48.984;8.548;2023-07-24T09:13:48;99004.81;;;23.18;85.15
32298;BME280;18782;48.984;8.548;2023-07-24T09:16:24;99013.19;;;23.27;85.12
32298;BME280;18782;48.984;8.548;2023-07-24T09:18:53;99019.94;;;23.32;84.48
32298;BME280;18782;48.984;8.548;2023-07-24T09:21:36;99016.47;;;23.32;83.49
32298;BME280;18782;48.984;8.548;2023-07-24T09:24:11;99019.25;;;23.49;84.15
32298;BME280;18782;48.984;8.548;2023-07-24T09:26:49;99011.44;;;23.68;83.96
32298;BME280;18782;48.984;8.548;2023-07-24T09:29:29;99010.56;;;23.88;83.31
32298;BME280;18782;48.984;8.548;2023-07-24T09:31:58;99003.06;;;23.99;81.84
32298;BME280;18782;48.984;8.548;2023-07-24T09:34:27;99009.72;;;24.06;80.03
32298;BME280;18782;48.984;8.548;2023-07-24T09:36:55;99009.59;;;24.09;82.07
32298;BME280;18782;48.984;8.548;2023-07-24T09:39:23;99009.31;;;24.15;80.35
32298;BME280;18782;48.984;8.548;2023-07-24T09:41:51;99009.88;;;24.22;81.88
32298;BME280;18782;48.984;8.548;2023-07-24T09:44:19;99016.84;;;24.04;82.80
32298;BME280;18782;48.984;8.548;2023-07-24T09:46:47;99026.88;;;23.76;82.69
32298;BME280;18782;48.984;8.548;2023-07-24T09:49:36;99026.06;;;23.53;82.61
32298;BME280;18782;48.984;8.548;2023-07-24T09:52:06;99023.56;;;23.30;84.05
32298;BME280;18782;48.984;8.548;2023-07-24T09:54:42;99018.03;;;23.15;86.12
32298;BME280;18782;48.984;8.548;2023-07-24T09:57:13;99015.53;;;22.92;86.27
32298;BME280;18782;48.984;8.548;2023-07-24T09:59:48;99024.19;;;22.71;85.92
32298;BME280;18782;48.984;8.548;2023-07-24T10:02:17;99019.19;;;22.64;86.57
32298;BME280;18782;48.984;8.548;2023-07-24T10:04:47;99019.44;;;22.58;87.06
32298;BME280;18782;48.984;8.548;2023-07-24T10:07:15;99016.16;;;22.53;88.17
32298;BME280;18782;48.984;8.548;2023-07-24T10:09:44;99014.72;;;22.45;89.44
32298;BME280;18782;48.984;8.548;2023-07-24T10:12:12;99020.84;;;22.45;91.16
32298;BME280;18782;48.984;8.548;2023-07-24T10:14:40;99016.75;;;22.38;91.15
32298;BME280;18782;48.984;8.548;2023-07-24T10:17:07;99019.38;;;22.38;92.63
32298;BME280;18782;48.984;8.548;2023-07-24T10:19:36;99020.38;;;22.34;94.08
32298;BME280;18782;48.984;8.548;2023-07-24T10:22:08;99010.88;;;22.31;94.27
32298;BME280;18782;48.984;8.548;2023-07-24T10:24:36;99014.78;;;22.21;95.72
32298;BME280;18782;48.984;8.548;2023-07-24T10:27:08;99014.88;;;22.18;95.61
32298;BME280;18782;48.984;8.548;2023-07-24T10:29:36;99015.31;;;22.06;95.93
32298;BME280;18782;48.984;8.548;2023-07-24T10:32:15;99001.47;;;22.02;96.48
32298;BME280;18782;48.984;8.548;2023-07-24T10:34:43;98994.84;;;21.92;96.80
32298;BME280;18782;48.984;8.548;2023-07-24T10:37:12;98995.53;;;21.97;96.40
32298;BME280;18782;48.984;8.548;2023-07-24T10:39:40;99017.41;;;21.96;97.25
32298;BME280;18782;48.984;8.548;2023-07-24T10:42:09;99014.91;;;21.93;97.75
32298;BME280;18782;48.984;8.548;2023-07-24T10:44:37;98998.34;;;21.93;97.96
32298;BME280;18782;48.984;8.548;2023-07-24T10:47:05;98993.16;;;21.91;98.15
32298;BME280;18782;48.984;8.548;2023-07-24T10:49:33;98972.09;;;21.94;98.43
32298;BME280;18782;48.984;8.548;2023-07-24T10:52:01;98980.72;;;21.96;98.37
32298;BME280;18782;48.984;8.548;2023-07-24T10:54:31;98976.16;;;22.01;98.89
32298;BME280;18782;48.984;8.548;2023-07-24T10:56:59;98972.59;;;22.04;98.43
32298;BME280;18782;48.984;8.548;2023-07-24T10:59:37;98978.38;;;22.13;98.33
32298;BME280;18782;48.984;8.548;2023-07-24T11:02:06;98958.88;;;22.21;97.15
32298;BME280;18782;48.984;8.548;2023-07-24T11:04:34;98947.22;;;22.28;96.57
32298;BME280;18782;48.984;8.548;2023-07-24T11:07:03;98945.16;;;22.36;95.92
32298;BME280;18782;48.984;8.548;2023-07-24T11:09:38;98935.34;;;22.41;93.97
32298;BME280;18782;48.984;8.548;2023-07-24T11:12:12;98927.31;;;22.46;92.95
32298;BME280;18782;48.984;8.548;2023-07-24T11:18:52;98923.56;;;22.73;89.48
32298;BME280;18782;48.984;8.548;2023-07-24T11:21:22;98923.03;;;22.85;85.73
32298;BME280;18782;48.984;8.548;2023-07-24T11:23:52;98908.44;;;23.00;85.68
32298;BME280;18782;48.984;8.548;2023-07-24T11:26:22;98899.63;;;23.22;85.80
32298;BME280;18782;48.984;8.548;2023-07-24T11:28:52;98907.09;;;23.51;84.61
32298;BME280;18782;48.984;8.548;2023-07-24T11:31:20;98918.91;;;23.80;81.92
32298;BME280;18782;48.984;8.548;2023-07-24T11:33:48;98932.59;;;24.07;81.03
32298;BME280;18782;48.984;8.548;2023-07-24T11:36:17;98933.22;;;24.12;77.69
32298;BME280;18782;48.984;8.548;2023-07-24T11:38:45;98949.19;;;24.27;76.91
32298;BME280;18782;48.984;8.548;2023-07-24T11:41:13;98944.66;;;24.49;75.52
32298;BME280;18782;48.984;8.548;2023-07-24T11:43:46;98959.84;;;24.61;77.00
32298;BME280;18782;48.984;8.548;2023-07-24T11:46:22;98953.97;;;24.73;76.75
32298;BME280;18782;48.984;8.548;2023-07-24T11:48:50;98955.41;;;24.62;75.73
32298;BME280;18782;48.984;8.548;2023-07-24T11:51:20;98968.91;;;24.73;75.89
32298;BME280;18782;48.984;8.548;2023-07-24T11:53:47;98958.13;;;24.60;73.66
32298;BME280;18782;48.984;8.548;2023-07-24T11:56:19;98968.66;;;24.60;72.94
32298;BME280;18782;48.984;8.548;2023-07-24T11:58:49;98974.28;;;24.34;73.37
32298;BME280;18782;48.984;8.548;2023-07-24T12:01:17;98969.72;;;24.00;71.99
32298;BME280;18782;48.984;8.548;2023-07-24T12:03:45;98973.50;;;23.94;72.04
32298;BME280;18782;48.984;8.548;2023-07-24T12:06:15;98970.78;;;23.95;72.11
32298;BME280;18782;48.984;8.548;2023-07-24T12:08:44;98969.00;;;23.77;72.06
32298;BME280;18782;48.984;8.548;2023-07-24T12:11:18;98981.56;;;23.71;68.09
32298;BME280;18782;48.984;8.548;2023-07-24T12:13:46;98978.66;;;23.56;69.30
32298;BME280;18782;48.984;8.548;2023-07-24T12:16:15;98978.88;;;23.72;69.31
32298;BME280;18782;48.984;8.548;2023-07-24T12:18:42;98970.78;;;23.95;70.71
32298;BME280;18782;48.984;8.548;2023-07-24T12:21:10;98964.06;;;24.28;70.72
32298;BME280;18782;48.984;8.548;2023-07-24T12:23:38;98952.75;;;24.26;69.16
32298;BME280;18782;48.984;8.548;2023-07-24T12:26:05;98951.75;;;24.47;68.19
32298;BME280;18782;48.984;8.548;2023-07-24T12:28:33;98938.75;;;24.44;67.58
32298;BME280;18782;48.984;8.548;2023-07-24T12:31:01;98935.91;;;24.30;66.38
32298;BME280;18782;48.984;8.548;2023-07-24T12:33:31;98932.50;;;24.28;66.79
32298;BME280;18782;48.984;8.548;2023-07-24T12:35:59;98934.94;;;24.86;66.08
32298;BME280;18782;48.984;8.548;2023-07-24T12:38:28;98940.13;;;25.90;65.75
32298;BME280;18782;48.984;8.548;2023-07-24T12:40:56;98939.72;;;26.45;60.68
32298;BME280;18782;48.984;8.548;2023-07-24T12:43:24;98936.47;;;26.08;58.75
32298;BME280;18782;48.984;8.548;2023-07-24T12:45:51;98924.19;;;26.39;60.34
32298;BME280;18782;48.984;8.548;2023-07-24T12:48:19;98935.97;;;26.49;57.57
32298;BME280;18782;48.984;8.548;2023-07-24T12:50:48;98918.91;;;26.70;57.30
32298;BME280;18782;48.984;8.548;2023-07-24T12:53:16;98922.75;;;26.95;54.32
32298;BME280;18782;48.984;8.548;2023-07-24T12:55:52;98902.59;;;27.08;54.15
32298;BME280;18782;48.984;8.548;2023-07-24T12:58:20;98907.38;;;27.01;54.46
32298;BME280;18782;48.984;8.548;2023-07-24T13:00:48;98910.81;;;26.73;53.57
32298;BME280;18782;48.984;8.548;2023-07-24T13:03:15;98889.25;;;26.95;53.10
32298;BME280;18782;48.984;8.548;2023-07-24T13:05:43;98890.75;;;26.85;53.22
32298;BME280;18782;48.984;8.548;2023-07-24T13:08:13;98899.53;;;27.16;52.12
32298;BME280;18782;48.984;8.548;2023-07-24T13:10:43;98914.56;;;26.99;50.68
32298;BME280;18782;48.984;8.548;2023-07-24T13:13:10;98887.94;;;26.58;51.71
32298;BME280;18782;48.984;8.548;2023-07-24T13:15:38;98869.91;;;26.35;52.50